createdAt,value
2017-10-28T00:00:23.466Z,0
2017-10-28T00:01:32.089Z,0
2017-10-28T00:02:40.718Z,0
2017-10-28T00:03:49.346Z,0
2017-10-28T00:04:57.967Z,0
2017-10-28T00:06:06.594Z,0
2017-10-28T00:07:15.216Z,0
2017-10-28T00:08:23.851Z,0
2017-10-28T00:09:32.474Z,0
2017-10-28T00:10:41.101Z,0
2017-10-28T00:11:49.731Z,0
2017-10-28T00:12:58.360Z,0
2017-10-28T00:14:06.979Z,0
2017-10-28T00:15:15.609Z,0
2017-10-28T00:16:24.234Z,0
2017-10-28T00:17:33.196Z,0
2017-10-28T00:18:41.822Z,0
2017-10-28T00:19:50.453Z,0
2017-10-28T00:20:59.082Z,0
2017-10-28T00:22:07.710Z,0
2017-10-28T00:23:16.328Z,0
2017-10-28T00:24:24.956Z,0
2017-10-28T00:25:33.584Z,0
2017-10-28T00:26:42.201Z,0
2017-10-28T00:27:50.831Z,0
2017-10-28T00:28:59.459Z,0
2017-10-28T00:30:08.091Z,0
2017-10-28T00:31:16.714Z,0
2017-10-28T00:32:25.345Z,0
2017-10-28T00:33:33.970Z,0
2017-10-28T00:34:42.597Z,0
2017-10-28T00:35:51.870Z,0
2017-10-28T00:37:00.496Z,0
2017-10-28T00:38:09.124Z,0
2017-10-28T00:39:17.747Z,0
2017-10-28T00:40:26.369Z,0
2017-10-28T00:41:35.000Z,0
2017-10-28T00:42:43.629Z,0
2017-10-28T00:43:52.252Z,0
2017-10-28T00:45:00.883Z,0
2017-10-28T00:46:09.506Z,0
2017-10-28T00:47:18.127Z,0
2017-10-28T00:48:26.755Z,0
2017-10-28T00:49:35.373Z,0
2017-10-28T00:50:44.002Z,0
2017-10-28T00:51:52.621Z,0
2017-10-28T00:53:01.247Z,0
2017-10-28T00:54:09.878Z,0
2017-10-28T00:55:18.504Z,0
2017-10-28T00:56:27.127Z,0
2017-10-28T00:57:35.751Z,0
2017-10-28T00:58:44.375Z,0
2017-10-28T00:59:53.006Z,0
2017-10-28T01:01:01.628Z,0
2017-10-28T01:02:10.251Z,0
2017-10-28T01:03:18.886Z,0
2017-10-28T01:04:27.832Z,0
2017-10-28T01:05:36.790Z,0
2017-10-28T01:06:45.415Z,0
2017-10-28T01:07:54.040Z,0
2017-10-28T01:09:02.674Z,0
2017-10-28T01:10:11.295Z,0
2017-10-28T01:11:19.918Z,0
2017-10-28T01:12:28.882Z,0
2017-10-28T01:13:37.509Z,0
2017-10-28T01:14:46.135Z,0
2017-10-28T01:15:54.762Z,0
2017-10-28T01:17:03.396Z,0
2017-10-28T01:18:12.009Z,0
2017-10-28T01:19:20.639Z,0
2017-10-28T01:20:29.261Z,0
2017-10-28T01:21:37.892Z,0
2017-10-28T01:22:46.516Z,0
2017-10-28T01:23:55.141Z,0
2017-10-28T01:25:03.771Z,0
2017-10-28T01:26:12.395Z,0
2017-10-28T01:27:21.017Z,0
2017-10-28T01:28:29.638Z,0
2017-10-28T01:29:38.265Z,0
2017-10-28T01:30:46.882Z,0
2017-10-28T01:31:55.512Z,0
2017-10-28T01:33:04.139Z,0
2017-10-28T01:34:12.770Z,0
2017-10-28T01:35:21.399Z,0
2017-10-28T01:36:30.021Z,0
2017-10-28T01:37:38.645Z,0
2017-10-28T01:38:47.273Z,0
2017-10-28T01:39:55.891Z,0
2017-10-28T01:41:04.513Z,0
2017-10-28T01:42:13.134Z,0
2017-10-28T01:43:21.760Z,0
2017-10-28T01:44:30.380Z,0
2017-10-28T01:45:39.014Z,0
2017-10-28T01:46:47.633Z,0
2017-10-28T01:47:56.592Z,0
2017-10-28T01:49:05.214Z,0
2017-10-28T01:50:13.842Z,0
2017-10-28T01:51:22.472Z,0
2017-10-28T01:52:31.095Z,0
2017-10-28T01:53:39.717Z,0
2017-10-28T01:54:48.351Z,0
2017-10-28T01:55:56.974Z,0
2017-10-28T01:57:05.603Z,0
2017-10-28T01:58:14.221Z,0
2017-10-28T01:59:22.848Z,0
2017-10-28T02:00:31.476Z,0
2017-10-28T02:01:40.100Z,0
2017-10-28T02:02:48.732Z,0
2017-10-28T02:03:57.350Z,0
2017-10-28T02:05:05.978Z,0
2017-10-28T02:06:14.605Z,0
2017-10-28T02:07:23.225Z,0
2017-10-28T02:08:32.186Z,0
2017-10-28T02:09:40.812Z,0
2017-10-28T02:10:49.434Z,0
2017-10-28T02:11:58.385Z,0
2017-10-28T02:13:07.021Z,0
2017-10-28T02:14:15.641Z,0
2017-10-28T02:15:24.593Z,0
2017-10-28T02:16:33.226Z,0
2017-10-28T02:17:41.847Z,0
2017-10-28T02:18:50.476Z,0
2017-10-28T02:19:59.426Z,0
2017-10-28T02:21:08.049Z,0
2017-10-28T02:22:16.681Z,0
2017-10-28T02:23:25.307Z,0
2017-10-28T02:24:33.943Z,0
2017-10-28T02:25:42.555Z,0
2017-10-28T02:26:51.181Z,0
2017-10-28T02:27:59.810Z,0
2017-10-28T02:29:08.437Z,0
2017-10-28T02:30:17.404Z,0
2017-10-28T02:31:26.026Z,0
2017-10-28T02:32:34.654Z,0
2017-10-28T02:33:43.279Z,0
2017-10-28T02:34:52.246Z,0
2017-10-28T02:36:00.870Z,0
2017-10-28T02:37:09.493Z,0
2017-10-28T02:38:18.119Z,0
2017-10-28T02:39:26.750Z,0
2017-10-28T02:40:35.373Z,0
2017-10-28T02:41:43.994Z,0
2017-10-28T02:42:52.626Z,0
2017-10-28T02:44:01.256Z,0
2017-10-28T02:45:10.210Z,0
2017-10-28T02:46:18.841Z,0
2017-10-28T02:47:27.468Z,0
2017-10-28T02:48:36.109Z,0
2017-10-28T02:49:44.716Z,0
2017-10-28T02:50:53.670Z,0
2017-10-28T02:52:02.299Z,0
2017-10-28T02:53:10.915Z,0
2017-10-28T02:54:19.547Z,0
2017-10-28T02:55:28.170Z,0
2017-10-28T02:56:36.804Z,0
2017-10-28T02:57:45.441Z,0
2017-10-28T02:58:54.051Z,0
2017-10-28T03:00:02.679Z,0
2017-10-28T03:01:11.307Z,0
2017-10-28T03:02:19.937Z,0
2017-10-28T03:03:28.564Z,0
2017-10-28T03:04:37.187Z,0
2017-10-28T03:05:45.811Z,0
2017-10-28T03:06:54.438Z,0
2017-10-28T03:08:03.057Z,0
2017-10-28T03:09:11.684Z,0
2017-10-28T03:10:20.308Z,0
2017-10-28T03:11:28.928Z,0
2017-10-28T03:12:37.557Z,0
2017-10-28T03:13:46.185Z,0
2017-10-28T03:14:54.807Z,0
2017-10-28T03:16:03.444Z,0
2017-10-28T03:17:12.058Z,0
2017-10-28T03:18:20.687Z,0
2017-10-28T03:19:29.313Z,0
2017-10-28T03:20:37.930Z,0
2017-10-28T03:21:46.561Z,0
2017-10-28T03:22:55.188Z,0
2017-10-28T03:24:03.818Z,0
2017-10-28T03:25:12.444Z,0
2017-10-28T03:26:21.065Z,0
2017-10-28T03:27:29.690Z,0
2017-10-28T03:28:38.316Z,0
2017-10-28T03:29:47.267Z,0
2017-10-28T03:30:55.906Z,0
2017-10-28T03:32:04.854Z,0
2017-10-28T03:33:13.483Z,0
2017-10-28T03:34:22.437Z,0
2017-10-28T03:35:31.055Z,0
2017-10-28T03:36:40.017Z,0
2017-10-28T03:37:48.646Z,0
2017-10-28T03:38:57.261Z,0
2017-10-28T03:40:05.891Z,0
2017-10-28T03:41:14.518Z,0
2017-10-28T03:42:23.140Z,0
2017-10-28T03:43:31.763Z,0
2017-10-28T03:44:40.392Z,0
2017-10-28T03:45:49.015Z,0
2017-10-28T03:46:57.641Z,0
2017-10-28T03:48:06.258Z,0
2017-10-28T03:49:14.888Z,0
2017-10-28T03:50:23.513Z,0
2017-10-28T03:51:32.133Z,0
2017-10-28T03:52:40.766Z,0
2017-10-28T03:53:49.717Z,0
2017-10-28T03:54:58.342Z,0
2017-10-28T03:56:06.979Z,0
2017-10-28T03:57:15.586Z,0
2017-10-28T03:58:24.213Z,0
2017-10-28T03:59:32.840Z,0
2017-10-28T04:00:41.466Z,0
2017-10-28T04:01:50.093Z,0
2017-10-28T04:02:58.711Z,0
2017-10-28T04:04:07.336Z,0
2017-10-28T04:05:15.977Z,0
2017-10-28T04:06:24.582Z,0
2017-10-28T04:07:33.212Z,0
2017-10-28T04:08:41.835Z,0
2017-10-28T04:09:50.464Z,0
2017-10-28T04:10:59.078Z,0
2017-10-28T04:12:07.714Z,0
2017-10-28T04:13:16.333Z,0
2017-10-28T04:14:24.960Z,0
2017-10-28T04:15:33.576Z,0
2017-10-28T04:16:42.202Z,0
2017-10-28T04:17:50.833Z,0
2017-10-28T04:18:59.452Z,0
2017-10-28T04:20:08.072Z,0
2017-10-28T04:21:16.705Z,0
2017-10-28T04:22:25.331Z,0
2017-10-28T04:23:33.949Z,0
2017-10-28T04:24:42.580Z,0
2017-10-28T04:25:51.204Z,0
2017-10-28T04:26:59.824Z,0
2017-10-28T04:28:08.450Z,0
2017-10-28T04:29:17.067Z,0
2017-10-28T04:30:25.701Z,0
2017-10-28T04:31:34.321Z,0
2017-10-28T04:32:42.939Z,0
2017-10-28T04:33:51.570Z,0
2017-10-28T04:35:00.193Z,0
2017-10-28T04:36:08.815Z,0
2017-10-28T04:37:17.445Z,0
2017-10-28T04:38:26.071Z,0
2017-10-28T04:39:34.690Z,0
2017-10-28T04:40:43.314Z,0
2017-10-28T04:41:51.944Z,0
2017-10-28T04:43:00.563Z,0
2017-10-28T04:44:09.197Z,0
2017-10-28T04:45:17.820Z,0
2017-10-28T04:46:26.446Z,0
2017-10-28T04:47:35.074Z,0
2017-10-28T04:48:43.691Z,0
2017-10-28T04:49:52.318Z,0
2017-10-28T04:51:00.940Z,0
2017-10-28T04:52:09.577Z,0
2017-10-28T04:53:18.531Z,0
2017-10-28T04:54:27.152Z,0
2017-10-28T04:55:35.782Z,0
2017-10-28T04:56:44.408Z,0
2017-10-28T04:57:53.026Z,0
2017-10-28T04:59:01.653Z,0
2017-10-28T05:00:10.278Z,0
2017-10-28T05:01:18.907Z,0
2017-10-28T05:02:27.530Z,0
2017-10-28T05:03:36.153Z,0
2017-10-28T05:04:44.781Z,0
2017-10-28T05:05:53.420Z,0
2017-10-28T05:07:02.027Z,0
2017-10-28T05:08:10.652Z,0
2017-10-28T05:09:19.279Z,0
2017-10-28T05:10:27.894Z,0
2017-10-28T05:11:36.525Z,0
2017-10-28T05:12:45.479Z,0
2017-10-28T05:13:54.107Z,0
2017-10-28T05:15:02.734Z,0
2017-10-28T05:16:11.352Z,0
2017-10-28T05:17:19.982Z,0
2017-10-28T05:18:28.610Z,0
2017-10-28T05:19:37.231Z,0
2017-10-28T05:20:45.857Z,0
2017-10-28T05:21:54.482Z,0
2017-10-28T05:23:03.107Z,0
2017-10-28T05:24:11.730Z,0
2017-10-28T05:25:20.365Z,0
2017-10-28T05:26:28.987Z,0
2017-10-28T05:27:37.616Z,0
2017-10-28T05:28:46.232Z,0
2017-10-28T05:29:54.856Z,0
2017-10-28T05:31:03.488Z,0
2017-10-28T05:32:12.110Z,0
2017-10-28T05:33:20.734Z,0
2017-10-28T05:34:29.370Z,0
2017-10-28T05:35:37.984Z,0
2017-10-28T05:36:46.607Z,0
2017-10-28T05:37:55.236Z,0
2017-10-28T05:39:03.858Z,0
2017-10-28T05:40:12.478Z,0
2017-10-28T05:41:21.440Z,0
2017-10-28T05:42:30.060Z,0
2017-10-28T05:43:38.690Z,0
2017-10-28T05:44:47.314Z,0
2017-10-28T05:45:55.934Z,0
2017-10-28T05:47:04.568Z,0
2017-10-28T05:48:13.191Z,0
2017-10-28T05:49:21.811Z,0
2017-10-28T05:50:30.434Z,0
2017-10-28T05:51:39.386Z,0
2017-10-28T05:52:48.018Z,0
2017-10-28T05:53:56.640Z,0
2017-10-28T05:55:05.264Z,0
2017-10-28T05:56:13.897Z,0
2017-10-28T05:57:22.511Z,0
2017-10-28T05:58:31.140Z,0
2017-10-28T05:59:39.762Z,0
2017-10-28T06:00:48.388Z,0
2017-10-28T06:01:57.020Z,0
2017-10-28T06:03:05.642Z,0
2017-10-28T06:04:14.263Z,0
2017-10-28T06:05:22.893Z,0
2017-10-28T06:06:31.518Z,0
2017-10-28T06:07:40.138Z,0
2017-10-28T06:08:48.766Z,0
2017-10-28T06:09:57.391Z,0
2017-10-28T06:11:06.005Z,0
2017-10-28T06:12:14.633Z,0
2017-10-28T06:13:23.257Z,0
2017-10-28T06:14:31.897Z,0
2017-10-28T06:15:40.846Z,0
2017-10-28T06:16:49.468Z,0
2017-10-28T06:17:58.093Z,0
2017-10-28T06:19:06.717Z,0
2017-10-28T06:20:15.337Z,0
2017-10-28T06:21:23.965Z,0
2017-10-28T06:22:32.589Z,0
2017-10-28T06:23:41.549Z,0
2017-10-28T06:24:50.176Z,0
2017-10-28T06:25:58.804Z,0
2017-10-28T06:27:07.430Z,0
2017-10-28T06:28:16.063Z,0
2017-10-28T06:29:24.678Z,0
2017-10-28T06:30:33.306Z,0
2017-10-28T06:31:41.931Z,0
2017-10-28T06:32:50.549Z,5
2017-10-28T06:33:59.205Z,5
2017-10-28T06:35:07.805Z,5
2017-10-28T06:36:16.427Z,5
2017-10-28T06:37:25.059Z,5
2017-10-28T06:38:33.685Z,10
2017-10-28T06:39:42.308Z,10
2017-10-28T06:40:50.935Z,5
2017-10-28T06:41:59.553Z,5
2017-10-28T06:43:08.189Z,5
2017-10-28T06:44:16.816Z,5
2017-10-28T06:45:25.440Z,10
2017-10-28T06:46:34.066Z,10
2017-10-28T06:47:42.697Z,10
2017-10-28T06:48:51.648Z,10
2017-10-28T06:50:00.274Z,10
2017-10-28T06:51:08.893Z,10
2017-10-28T06:52:17.519Z,10
2017-10-28T06:53:26.149Z,10
2017-10-28T06:54:34.773Z,10
2017-10-28T06:55:43.405Z,15
2017-10-28T06:56:52.024Z,15
2017-10-28T06:58:00.655Z,20
2017-10-28T06:59:09.281Z,20
2017-10-28T07:00:17.901Z,15
2017-10-28T07:01:26.532Z,20
2017-10-28T07:02:35.155Z,25
2017-10-28T07:03:43.780Z,25
2017-10-28T07:04:52.400Z,30
2017-10-28T07:06:01.030Z,35
2017-10-28T07:07:09.653Z,35
2017-10-28T07:08:18.276Z,35
2017-10-28T07:09:26.907Z,35
2017-10-28T07:10:35.526Z,35
2017-10-28T07:11:44.175Z,35
2017-10-28T07:12:52.772Z,40
2017-10-28T07:14:01.397Z,40
2017-10-28T07:15:10.054Z,45
2017-10-28T07:16:18.649Z,35
2017-10-28T07:17:27.276Z,45
2017-10-28T07:18:35.892Z,45
2017-10-28T07:19:44.521Z,45
2017-10-28T07:20:53.140Z,40
2017-10-28T07:22:01.764Z,40
2017-10-28T07:23:10.383Z,35
2017-10-28T07:24:19.346Z,30
2017-10-28T07:25:28.304Z,30
2017-10-28T07:26:36.933Z,25
2017-10-28T07:27:45.554Z,30
2017-10-28T07:28:54.180Z,30
2017-10-28T07:30:02.813Z,35
2017-10-28T07:31:11.765Z,45
2017-10-28T07:32:20.396Z,45
2017-10-28T07:33:29.017Z,45
2017-10-28T07:34:37.639Z,45
2017-10-28T07:35:46.264Z,40
2017-10-28T07:36:54.896Z,40
2017-10-28T07:38:03.525Z,35
2017-10-28T07:39:12.478Z,30
2017-10-28T07:40:21.110Z,30
2017-10-28T07:41:29.730Z,30
2017-10-28T07:42:38.365Z,35
2017-10-28T07:43:46.987Z,35
2017-10-28T07:44:55.611Z,30
2017-10-28T07:46:04.246Z,30
2017-10-28T07:47:12.865Z,30
2017-10-28T07:48:21.828Z,25
2017-10-28T07:49:30.452Z,30
2017-10-28T07:50:39.071Z,40
2017-10-28T07:51:48.054Z,40
2017-10-28T07:52:56.674Z,45
2017-10-28T07:54:05.302Z,45
2017-10-28T07:55:13.918Z,50
2017-10-28T07:56:22.548Z,50
2017-10-28T07:57:31.506Z,60
2017-10-28T07:58:40.462Z,60
2017-10-28T07:59:49.087Z,50
2017-10-28T08:00:57.720Z,40
2017-10-28T08:02:06.344Z,45
2017-10-28T08:03:14.965Z,55
2017-10-28T08:04:23.600Z,55
2017-10-28T08:05:32.223Z,55
2017-10-28T08:06:40.860Z,65
2017-10-28T08:07:49.475Z,75
2017-10-28T08:08:58.092Z,80
2017-10-28T08:10:07.057Z,80
2017-10-28T08:11:15.678Z,70
2017-10-28T08:12:24.306Z,65
2017-10-28T08:13:32.938Z,60
2017-10-28T08:14:41.561Z,55
2017-10-28T08:15:50.183Z,50
2017-10-28T08:16:58.807Z,45
2017-10-28T08:18:07.433Z,50
2017-10-28T08:19:16.051Z,50
2017-10-28T08:20:24.679Z,60
2017-10-28T08:21:33.307Z,60
2017-10-28T08:22:41.924Z,50
2017-10-28T08:23:50.559Z,45
2017-10-28T08:24:59.517Z,45
2017-10-28T08:26:08.146Z,45
2017-10-28T08:27:16.773Z,55
2017-10-28T08:28:25.394Z,65
2017-10-28T08:29:34.023Z,90
2017-10-28T08:30:42.652Z,95
2017-10-28T08:31:51.263Z,105
2017-10-28T08:32:59.894Z,100
2017-10-28T08:34:08.516Z,105
2017-10-28T08:35:17.141Z,95
2017-10-28T08:36:25.762Z,75
2017-10-28T08:37:34.397Z,70
2017-10-28T08:38:43.018Z,80
2017-10-28T08:39:51.647Z,75
2017-10-28T08:41:00.270Z,75
2017-10-28T08:42:08.898Z,70
2017-10-28T08:43:17.527Z,70
2017-10-28T08:44:26.153Z,80
2017-10-28T08:45:34.785Z,70
2017-10-28T08:46:43.405Z,90
2017-10-28T08:47:52.032Z,85
2017-10-28T08:49:00.664Z,90
2017-10-28T08:50:09.279Z,100
2017-10-28T08:51:17.911Z,110
2017-10-28T08:52:26.538Z,110
2017-10-28T08:53:35.167Z,110
2017-10-28T08:54:43.795Z,115
2017-10-28T08:55:52.415Z,115
2017-10-28T08:57:01.045Z,115
2017-10-28T08:58:09.677Z,130
2017-10-28T08:59:18.298Z,130
2017-10-28T09:00:27.256Z,130
2017-10-28T09:01:35.884Z,130
2017-10-28T09:02:44.508Z,140
2017-10-28T09:03:53.137Z,145
2017-10-28T09:05:01.772Z,130
2017-10-28T09:06:10.398Z,95
2017-10-28T09:07:19.026Z,85
2017-10-28T09:08:27.646Z,85
2017-10-28T09:09:36.274Z,90
2017-10-28T09:10:44.904Z,105
2017-10-28T09:11:53.528Z,95
2017-10-28T09:13:02.150Z,80
2017-10-28T09:14:10.780Z,70
2017-10-28T09:15:19.407Z,70
2017-10-28T09:16:28.033Z,55
2017-10-28T09:17:36.663Z,65
2017-10-28T09:18:45.285Z,75
2017-10-28T09:19:53.914Z,85
2017-10-28T09:21:02.541Z,85
2017-10-28T09:22:11.161Z,70
2017-10-28T09:23:19.791Z,85
2017-10-28T09:24:28.415Z,90
2017-10-28T09:25:37.041Z,85
2017-10-28T09:26:45.680Z,85
2017-10-28T09:27:54.295Z,80
2017-10-28T09:29:02.924Z,90
2017-10-28T09:30:11.550Z,110
2017-10-28T09:31:20.179Z,115
2017-10-28T09:32:28.802Z,105
2017-10-28T09:33:37.430Z,90
2017-10-28T09:34:46.058Z,85
2017-10-28T09:35:54.679Z,80
2017-10-28T09:37:03.313Z,70
2017-10-28T09:38:11.936Z,85
2017-10-28T09:39:20.561Z,90
2017-10-28T09:40:29.189Z,95
2017-10-28T09:41:37.809Z,100
2017-10-28T09:42:46.438Z,95
2017-10-28T09:43:55.061Z,95
2017-10-28T09:45:03.690Z,75
2017-10-28T09:46:12.318Z,75
2017-10-28T09:47:20.939Z,85
2017-10-28T09:48:29.567Z,90
2017-10-28T09:49:38.197Z,70
2017-10-28T09:50:46.817Z,60
2017-10-28T09:51:55.446Z,60
2017-10-28T09:53:04.072Z,50
2017-10-28T09:54:12.714Z,55
2017-10-28T09:55:21.338Z,65
2017-10-28T09:56:29.962Z,55
2017-10-28T09:57:38.588Z,50
2017-10-28T09:58:47.220Z,65
2017-10-28T09:59:55.840Z,80
2017-10-28T10:01:04.470Z,95
2017-10-28T10:02:13.101Z,80
2017-10-28T10:03:21.722Z,65
2017-10-28T10:04:30.352Z,55
2017-10-28T10:05:38.984Z,40
2017-10-28T10:06:47.614Z,45
2017-10-28T10:07:56.238Z,45
2017-10-28T10:09:04.857Z,45
2017-10-28T10:10:13.485Z,50
2017-10-28T10:11:22.116Z,55
2017-10-28T10:12:30.737Z,70
2017-10-28T10:13:39.694Z,90
2017-10-28T10:14:48.324Z,100
2017-10-28T10:15:56.953Z,100
2017-10-28T10:17:05.576Z,105
2017-10-28T10:18:14.213Z,95
2017-10-28T10:19:22.839Z,90
2017-10-28T10:20:31.466Z,90
2017-10-28T10:21:40.085Z,95
2017-10-28T10:22:48.712Z,100
2017-10-28T10:23:57.338Z,90
2017-10-28T10:25:05.960Z,85
2017-10-28T10:26:14.586Z,90
2017-10-28T10:27:23.220Z,85
2017-10-28T10:28:31.847Z,90
2017-10-28T10:29:40.470Z,90
2017-10-28T10:30:49.106Z,90
2017-10-28T10:31:57.732Z,95
2017-10-28T10:33:06.356Z,120
2017-10-28T10:34:14.986Z,110
2017-10-28T10:35:23.606Z,100
2017-10-28T10:36:32.236Z,120
2017-10-28T10:37:40.864Z,120
2017-10-28T10:38:49.485Z,95
2017-10-28T10:39:58.120Z,95
2017-10-28T10:41:06.743Z,90
2017-10-28T10:42:15.371Z,85
2017-10-28T10:43:23.996Z,75
2017-10-28T10:44:32.621Z,80
2017-10-28T10:45:41.256Z,100
2017-10-28T10:46:49.878Z,105
2017-10-28T10:47:58.500Z,120
2017-10-28T10:49:07.139Z,140
2017-10-28T10:50:15.764Z,145
2017-10-28T10:51:24.395Z,140
2017-10-28T10:52:33.018Z,120
2017-10-28T10:53:41.643Z,95
2017-10-28T10:54:50.277Z,85
2017-10-28T10:55:58.904Z,85
2017-10-28T10:57:07.531Z,75
2017-10-28T10:58:16.494Z,80
2017-10-28T10:59:25.121Z,80
2017-10-28T11:00:34.076Z,90
2017-10-28T11:01:43.033Z,105
2017-10-28T11:02:51.661Z,115
2017-10-28T11:04:00.276Z,135
2017-10-28T11:05:08.906Z,125
2017-10-28T11:06:17.533Z,125
2017-10-28T11:07:26.167Z,130
2017-10-28T11:08:34.790Z,135
2017-10-28T11:09:43.417Z,140
2017-10-28T11:10:52.053Z,110
2017-10-28T11:12:00.666Z,135
2017-10-28T11:13:09.302Z,135
2017-10-28T11:14:17.929Z,125
2017-10-28T11:15:26.553Z,125
2017-10-28T11:16:35.516Z,120
2017-10-28T11:17:44.148Z,105
2017-10-28T11:18:52.770Z,100
2017-10-28T11:20:01.392Z,110
2017-10-28T11:21:10.018Z,135
2017-10-28T11:22:18.655Z,110
2017-10-28T11:23:27.278Z,95
2017-10-28T11:24:35.902Z,105
2017-10-28T11:25:44.537Z,115
2017-10-28T11:26:53.491Z,130
2017-10-28T11:28:02.115Z,130
2017-10-28T11:29:10.748Z,100
2017-10-28T11:30:19.375Z,90
2017-10-28T11:31:27.994Z,80
2017-10-28T11:32:36.626Z,70
2017-10-28T11:33:45.254Z,85
2017-10-28T11:34:53.885Z,95
2017-10-28T11:36:02.511Z,95
2017-10-28T11:37:11.462Z,90
2017-10-28T11:38:20.090Z,90
2017-10-28T11:39:28.721Z,120
2017-10-28T11:40:37.343Z,90
2017-10-28T11:41:45.977Z,80
2017-10-28T11:42:54.601Z,80
2017-10-28T11:44:03.235Z,95
2017-10-28T11:45:11.863Z,105
2017-10-28T11:46:20.486Z,85
2017-10-28T11:47:29.113Z,85
2017-10-28T11:48:37.734Z,100
2017-10-28T11:49:46.370Z,100
2017-10-28T11:50:55.325Z,80
2017-10-28T11:52:03.950Z,80
2017-10-28T11:53:12.583Z,100
2017-10-28T11:54:21.207Z,100
2017-10-28T11:55:29.839Z,85
2017-10-28T11:56:38.462Z,75
2017-10-28T11:57:47.091Z,80
2017-10-28T11:58:55.712Z,95
2017-10-28T12:00:04.673Z,110
2017-10-28T12:01:13.301Z,90
2017-10-28T12:02:21.923Z,90
2017-10-28T12:03:30.556Z,110
2017-10-28T12:04:39.179Z,100
2017-10-28T12:05:47.809Z,85
2017-10-28T12:06:56.440Z,80
2017-10-28T12:08:05.060Z,75
2017-10-28T12:09:13.691Z,85
2017-10-28T12:10:22.318Z,100
2017-10-28T12:11:30.938Z,130
2017-10-28T12:12:39.569Z,135
2017-10-28T12:13:48.199Z,125
2017-10-28T12:14:57.155Z,125
2017-10-28T12:16:05.780Z,125
2017-10-28T12:17:14.415Z,125
2017-10-28T12:18:23.042Z,105
2017-10-28T12:19:32.000Z,110
2017-10-28T12:20:40.620Z,110
2017-10-28T12:21:49.253Z,110
2017-10-28T12:22:57.883Z,120
2017-10-28T12:24:06.519Z,120
2017-10-28T12:25:15.135Z,145
2017-10-28T12:26:23.770Z,135
2017-10-28T12:27:32.721Z,125
2017-10-28T12:28:41.347Z,100
2017-10-28T12:29:49.983Z,90
2017-10-28T12:30:58.606Z,90
2017-10-28T12:32:07.232Z,90
2017-10-28T12:33:15.855Z,90
2017-10-28T12:34:24.482Z,95
2017-10-28T12:35:33.116Z,100
2017-10-28T12:36:41.742Z,95
2017-10-28T12:37:50.366Z,105
2017-10-28T12:38:58.999Z,110
2017-10-28T12:40:07.633Z,115
2017-10-28T12:41:16.257Z,125
2017-10-28T12:42:24.881Z,115
2017-10-28T12:43:33.509Z,120
2017-10-28T12:44:42.145Z,135
2017-10-28T12:45:50.771Z,130
2017-10-28T12:46:59.400Z,120
2017-10-28T12:48:08.029Z,105
2017-10-28T12:49:16.650Z,100
2017-10-28T12:50:25.287Z,85
2017-10-28T12:51:33.907Z,70
2017-10-28T12:52:42.533Z,65
2017-10-28T12:53:51.496Z,70
2017-10-28T12:55:00.119Z,70
2017-10-28T12:56:08.744Z,65
2017-10-28T12:57:17.376Z,65
2017-10-28T12:58:26.001Z,60
2017-10-28T12:59:34.626Z,70
2017-10-28T13:00:43.254Z,70
2017-10-28T13:01:52.207Z,65
2017-10-28T13:03:00.842Z,70
2017-10-28T13:04:09.469Z,80
2017-10-28T13:05:18.096Z,70
2017-10-28T13:06:26.726Z,55
2017-10-28T13:07:35.350Z,50
2017-10-28T13:08:43.975Z,55
2017-10-28T13:09:52.603Z,70
2017-10-28T13:11:01.231Z,50
2017-10-28T13:12:09.853Z,55
2017-10-28T13:13:18.483Z,75
2017-10-28T13:14:27.112Z,85
2017-10-28T13:15:35.732Z,75
2017-10-28T13:16:44.371Z,75
2017-10-28T13:17:52.996Z,60
2017-10-28T13:19:01.626Z,65
2017-10-28T13:20:10.260Z,60
2017-10-28T13:21:18.887Z,70
2017-10-28T13:22:27.513Z,95
2017-10-28T13:23:36.142Z,95
2017-10-28T13:24:44.764Z,100
2017-10-28T13:25:53.393Z,95
2017-10-28T13:27:02.022Z,85
2017-10-28T13:28:10.651Z,80
2017-10-28T13:29:19.273Z,65
2017-10-28T13:30:27.912Z,55
2017-10-28T13:31:36.544Z,55
2017-10-28T13:32:45.161Z,60
2017-10-28T13:33:53.782Z,70
2017-10-28T13:35:02.412Z,85
2017-10-28T13:36:11.040Z,90
2017-10-28T13:37:19.667Z,65
2017-10-28T13:38:28.298Z,65
2017-10-28T13:39:36.921Z,65
2017-10-28T13:40:45.552Z,55
2017-10-28T13:41:54.521Z,50
2017-10-28T13:43:03.143Z,65
2017-10-28T13:44:11.773Z,75
2017-10-28T13:45:20.403Z,85
2017-10-28T13:46:29.032Z,75
2017-10-28T13:47:37.662Z,65
2017-10-28T13:48:46.285Z,55
2017-10-28T13:49:54.917Z,55
2017-10-28T13:51:03.545Z,80
2017-10-28T13:52:12.165Z,75
2017-10-28T13:53:20.796Z,65
2017-10-28T13:54:29.429Z,60
2017-10-28T13:55:38.052Z,55
2017-10-28T13:56:46.682Z,50
2017-10-28T13:57:55.317Z,45
2017-10-28T13:59:03.945Z,40
2017-10-28T14:00:12.575Z,35
2017-10-28T14:01:21.201Z,35
2017-10-28T14:02:30.160Z,35
2017-10-28T14:03:38.787Z,35
2017-10-28T14:04:47.413Z,35
2017-10-28T14:05:56.040Z,35
2017-10-28T14:07:05.008Z,40
2017-10-28T14:08:13.961Z,50
2017-10-28T14:09:22.584Z,50
2017-10-28T14:10:31.218Z,50
2017-10-28T14:11:39.845Z,50
2017-10-28T14:12:48.471Z,50
2017-10-28T14:13:57.104Z,50
2017-10-28T14:15:05.723Z,50
2017-10-28T14:16:14.358Z,45
2017-10-28T14:17:22.983Z,45
2017-10-28T14:18:31.608Z,45
2017-10-28T14:19:40.242Z,45
2017-10-28T14:20:49.223Z,45
2017-10-28T14:21:57.853Z,40
2017-10-28T14:23:06.478Z,45
2017-10-28T14:24:15.119Z,45
2017-10-28T14:25:23.738Z,45
2017-10-28T14:26:32.364Z,30
2017-10-28T14:27:40.995Z,45
2017-10-28T14:28:49.613Z,35
2017-10-28T14:29:58.579Z,40
2017-10-28T14:31:07.203Z,35
2017-10-28T14:32:15.836Z,35
2017-10-28T14:33:24.466Z,35
2017-10-28T14:34:33.088Z,35
2017-10-28T14:35:41.720Z,45
2017-10-28T14:36:50.354Z,45
2017-10-28T14:37:58.980Z,45
2017-10-28T14:39:07.603Z,45
2017-10-28T14:40:16.231Z,40
2017-10-28T14:41:24.857Z,30
2017-10-28T14:42:33.489Z,25
2017-10-28T14:43:42.109Z,25
2017-10-28T14:44:50.742Z,20
2017-10-28T14:45:59.366Z,20
2017-10-28T14:47:08.001Z,25
2017-10-28T14:48:16.628Z,20
2017-10-28T14:49:25.252Z,15
2017-10-28T14:50:34.217Z,15
2017-10-28T14:51:42.844Z,15
2017-10-28T14:52:51.465Z,15
2017-10-28T14:54:00.434Z,15
2017-10-28T14:55:09.066Z,15
2017-10-28T14:56:17.685Z,15
2017-10-28T14:57:26.313Z,15
2017-10-28T14:58:34.945Z,10
2017-10-28T14:59:43.574Z,10
2017-10-28T15:00:52.206Z,10
2017-10-28T15:02:00.827Z,10
2017-10-28T15:03:09.789Z,10
2017-10-28T15:04:18.423Z,10
2017-10-28T15:05:27.039Z,10
2017-10-28T15:06:35.679Z,10
2017-10-28T15:07:44.304Z,10
2017-10-28T15:08:52.943Z,15
2017-10-28T15:10:01.576Z,15
2017-10-28T15:11:10.192Z,15
2017-10-28T15:12:18.823Z,15
2017-10-28T15:13:27.441Z,10
2017-10-28T15:14:36.076Z,10
2017-10-28T15:15:44.696Z,10
2017-10-28T15:16:53.321Z,10
2017-10-28T15:18:01.949Z,5
2017-10-28T15:19:10.580Z,5
2017-10-28T15:20:19.203Z,5
2017-10-28T15:21:27.838Z,5
2017-10-28T15:22:36.471Z,5
2017-10-28T15:23:45.092Z,5
2017-10-28T15:24:53.721Z,5
2017-10-28T15:26:02.351Z,5
2017-10-28T15:27:10.975Z,5
2017-10-28T15:28:19.601Z,5
2017-10-28T15:29:28.218Z,5
2017-10-28T15:30:36.851Z,5
2017-10-28T15:31:45.478Z,5
2017-10-28T15:32:54.096Z,5
2017-10-28T15:34:02.727Z,5
2017-10-28T15:35:11.359Z,5
2017-10-28T15:36:19.990Z,5
2017-10-28T15:37:28.617Z,5
2017-10-28T15:38:37.237Z,5
2017-10-28T15:39:45.866Z,5
2017-10-28T15:40:54.493Z,5
2017-10-28T15:42:03.114Z,0
2017-10-28T15:43:11.749Z,0
2017-10-28T15:44:20.372Z,0
2017-10-28T15:45:29.000Z,5
2017-10-28T15:46:37.627Z,0
2017-10-28T15:47:46.252Z,0
2017-10-28T15:48:54.879Z,0
2017-10-28T15:50:03.505Z,5
2017-10-28T15:51:12.125Z,0
2017-10-28T15:52:20.757Z,0
2017-10-28T15:53:29.382Z,0
2017-10-28T15:54:38.008Z,0
2017-10-28T15:55:46.631Z,0
2017-10-28T15:56:55.600Z,0
2017-10-28T15:58:04.230Z,0
2017-10-28T15:59:12.856Z,0
2017-10-28T16:00:21.476Z,0
2017-10-28T16:01:30.106Z,0
2017-10-28T16:02:38.733Z,0
2017-10-28T16:03:47.356Z,0
2017-10-28T16:04:55.986Z,0
2017-10-28T16:06:04.619Z,0
2017-10-28T16:07:13.242Z,0
2017-10-28T16:08:21.867Z,0
2017-10-28T16:09:30.503Z,0
2017-10-28T16:10:39.124Z,0
2017-10-28T16:11:47.757Z,0
2017-10-28T16:12:56.721Z,0
2017-10-28T16:14:05.348Z,0
2017-10-28T16:15:13.987Z,0
2017-10-28T16:16:22.612Z,0
2017-10-28T16:17:31.242Z,0
2017-10-28T16:18:39.870Z,0
2017-10-28T16:19:48.494Z,0
2017-10-28T16:20:57.121Z,0
2017-10-28T16:22:05.753Z,0
2017-10-28T16:23:14.378Z,0
2017-10-28T16:24:22.994Z,0
2017-10-28T16:25:31.626Z,0
2017-10-28T16:26:40.250Z,0
2017-10-28T16:27:48.885Z,0
2017-10-28T16:28:57.509Z,0
2017-10-28T16:30:06.128Z,0
2017-10-28T16:31:14.755Z,0